Time;durP1;ratioP1;P1;durP2;ratioP2;P2;SDS_P1;SDS_P2;PMS_P1;PMS_P2;Temp;Humidity;BMP_temperature;BMP_pressure;BME280_temperature;BME280_humidity;BME280_pressure;Samples;Min_cycle;Max_cycle;Signal;HPM_P1;HPM_P2
2024/03/01 00:01:28;;;;;;;14.13;7.07;;;;;;;6.48;42.26;100309.28;4985076;28;20041;-68
2024/03/01 00:03:53;;;;;;;18.27;8.30;;;;;;;6.44;42.45;100312.00;4980327;28;20044;-68
2024/03/01 00:06:19;;;;;;;16.63;7.50;;;;;;;6.47;42.54;100301.53;4958620;28;20339;-68
2024/03/01 00:08:44;;;;;;;11.70;6.80;;;;;;;6.55;42.11;100306.47;4955548;28;20045;-68
2024/03/01 00:11:10;;;;;;;14.93;7.47;;;;;;;6.64;42.03;100299.25;4953663;28;20132;-68
2024/03/01 00:13:38;;;;;;;18.27;6.88;;;;;;;6.48;42.15;100298.91;4961336;28;20034;-73
2024/03/01 00:16:03;;;;;;;15.32;6.45;;;;;;;6.60;41.81;100299.41;4955802;28;20132;-73
2024/03/01 00:18:29;;;;;;;14.20;6.65;;;;;;;6.59;42.22;100302.88;4960534;28;20048;-72
2024/03/01 00:20:55;;;;;;;12.18;6.30;;;;;;;6.40;42.42;100300.91;4959781;28;20176;-74
2024/03/01 00:23:20;;;;;;;15.45;7.00;;;;;;;6.52;41.82;100293.59;4964410;28;20045;-74
2024/03/01 00:25:46;;;;;;;12.23;5.53;;;;;;;6.47;42.05;100285.97;4963085;28;20084;-70
2024/03/01 00:28:12;;;;;;;16.77;6.82;;;;;;;6.47;42.37;100292.00;4943716;28;20092;-73
2024/03/01 00:30:37;;;;;;;16.42;8.55;;;;;;;6.09;42.92;100290.59;4973943;28;20037;-70
2024/03/01 00:33:03;;;;;;;16.17;7.18;;;;;;;6.55;41.89;100289.19;4992124;28;20647;-73
2024/03/01 00:35:29;;;;;;;11.63;5.80;;;;;;;6.52;42.40;100280.63;4991037;28;20116;-73
2024/03/01 00:37:55;;;;;;;14.70;7.18;;;;;;;6.30;42.13;100278.72;4962299;28;20030;-71
2024/03/01 00:40:21;;;;;;;16.13;6.85;;;;;;;6.39;41.89;100278.41;4984603;28;20068;-73
2024/03/01 00:42:47;;;;;;;11.95;6.55;;;;;;;6.43;41.95;100268.78;4981841;28;20041;-70
2024/03/01 00:45:13;;;;;;;17.27;6.90;;;;;;;6.35;41.90;100260.38;5000753;28;20044;-73
2024/03/01 00:47:50;;;;;;;15.73;6.75;;;;;;;6.28;41.92;100259.75;4975758;28;20131;-70
2024/03/01 00:50:19;;;;;;;13.80;6.43;;;;;;;6.33;41.75;100257.88;4960760;28;20049;-72
2024/03/01 00:52:44;;;;;;;10.80;6.38;;;;;;;6.28;41.68;100254.53;4986139;28;20091;-72
2024/03/01 00:55:12;;;;;;;14.32;6.20;;;;;;;6.05;41.99;100258.69;5003385;28;20049;-72
2024/03/01 00:57:38;;;;;;;18.15;7.82;;;;;;;6.05;42.09;100255.25;4979351;28;20198;-72
2024/03/01 01:00:06;;;;;;;15.80;7.72;;;;;;;6.09;41.92;100255.09;4971317;28;20752;-72
2024/03/01 01:02:31;;;;;;;13.60;7.13;;;;;;;5.99;41.92;100252.84;4973327;28;20125;-71
2024/03/01 01:04:57;;;;;;;18.20;6.80;;;;;;;5.97;42.14;100252.91;4988467;28;20041;-69
2024/03/01 01:07:24;;;;;;;12.98;6.15;;;;;;;6.03;42.15;100255.28;4994467;28;20180;-69
2024/03/01 01:09:49;;;;;;;12.93;6.57;;;;;;;6.06;41.84;100244.84;4965119;28;20037;-72
2024/03/01 01:12:15;;;;;;;14.55;6.05;;;;;;;5.99;42.06;100251.09;4948243;28;21558;-72
2024/03/01 01:14:40;;;;;;;13.13;6.35;;;;;;;6.11;41.91;100254.22;4982949;28;20072;-72
2024/03/01 01:17:06;;;;;;;11.60;5.68;;;;;;;6.18;41.81;100248.78;4994554;28;20067;-71
2024/03/01 01:19:31;;;;;;;12.43;6.57;;;;;;;6.00;41.81;100247.59;4997192;28;20151;-71
2024/03/01 01:21:57;;;;;;;11.60;5.97;;;;;;;6.07;42.09;100243.09;4971997;28;20049;-71
2024/03/01 01:24:22;;;;;;;10.90;6.25;;;;;;;5.98;41.90;100241.63;4992359;28;20085;-71
2024/03/01 01:26:47;;;;;;;20.63;7.55;;;;;;;5.81;42.17;100238.69;4986052;28;20045;-72
2024/03/01 01:29:13;;;;;;;12.35;5.63;;;;;;;5.67;42.44;100245.13;4995336;28;20033;-71
2024/03/01 01:31:38;;;;;;;16.40;6.88;;;;;;;5.60;42.44;100229.81;4977714;28;20049;-72
2024/03/01 01:34:04;;;;;;;17.05;7.20;;;;;;;5.66;42.47;100235.66;4968717;28;20029;-72
2024/03/01 01:36:30;;;;;;;16.30;6.93;;;;;;;5.78;42.65;100234.44;4985245;28;20056;-72
2024/03/01 01:38:55;;;;;;;14.88;5.63;;;;;;;5.59;42.72;100228.97;4972794;28;20041;-72
2024/03/01 01:41:21;;;;;;;12.75;6.82;;;;;;;5.51;42.99;100225.75;4981779;28;20056;-72
2024/03/01 01:43:46;;;;;;;14.73;7.00;;;;;;;5.51;42.83;100219.72;4966088;28;20055;-72
2024/03/01 01:46:14;;;;;;;15.82;7.75;;;;;;;5.52;42.69;100217.06;4944876;28;20052;-72
2024/03/01 01:48:43;;;;;;;17.15;7.00;;;;;;;5.50;42.75;100218.84;4977502;28;20394;-72
2024/03/01 01:51:14;;;;;;;15.57;7.50;;;;;;;5.30;43.05;100210.81;4982488;28;20176;-72
2024/03/01 01:53:40;;;;;;;16.38;7.47;;;;;;;5.35;42.52;100220.16;4994297;28;20088;-72
2024/03/01 01:56:06;;;;;;;12.57;6.78;;;;;;;5.25;42.90;100206.59;4981738;28;20402;-72
2024/03/01 01:58:36;;;;;;;13.52;6.68;;;;;;;5.21;42.79;100206.72;4962215;28;20251;-73
2024/03/01 02:01:02;;;;;;;14.40;7.47;;;;;;;5.20;43.35;100200.72;4940678;28;20041;-73
2024/03/01 02:03:35;;;;;;;13.20;7.38;;;;;;;5.02;43.08;100206.41;4941657;28;20038;-74
2024/03/01 02:06:03;;;;;;;14.43;7.65;;;;;;;5.23;42.87;100204.94;4954191;28;20499;-75
2024/03/01 02:08:32;;;;;;;13.32;7.35;;;;;;;5.09;43.29;100207.09;4966118;28;20037;-74
2024/03/01 02:10:57;;;;;;;19.55;7.43;;;;;;;4.86;43.72;100207.69;4961592;28;20104;-74
2024/03/01 02:13:23;;;;;;;12.70;6.22;;;;;;;4.73;44.24;100204.56;4981773;28;20357;-74
2024/03/01 02:15:48;;;;;;;17.70;7.55;;;;;;;5.11;43.44;100195.78;4993071;28;20117;-74
2024/03/01 02:18:14;;;;;;;12.75;7.13;;;;;;;5.13;43.50;100186.25;4975126;28;20042;-74
2024/03/01 02:20:53;;;;;;;12.98;6.60;;;;;;;5.11;43.19;100180.25;4972974;28;20040;-73
2024/03/01 02:23:21;;;;;;;13.32;7.05;;;;;;;5.10;43.27;100177.69;4991143;28;20045;-73
2024/03/01 02:25:46;;;;;;;15.75;7.35;;;;;;;5.04;43.30;100174.38;4963576;28;20266;-73
2024/03/01 02:28:12;;;;;;;14.45;7.25;;;;;;;5.21;43.13;100171.34;4940251;28;21498;-73
2024/03/01 02:30:38;;;;;;;14.98;7.57;;;;;;;5.28;42.94;100165.94;4998327;28;20063;-74
2024/03/01 02:33:04;;;;;;;16.83;7.95;;;;;;;5.27;42.77;100157.34;4986764;28;20592;-74
2024/03/01 02:35:29;;;;;;;14.23;6.65;;;;;;;4.93;43.74;100150.53;4982649;28;20160;-73
2024/03/01 02:37:55;;;;;;;16.15;7.50;;;;;;;5.13;43.13;100146.53;4974626;28;20128;-72
2024/03/01 02:40:20;;;;;;;15.18;7.78;;;;;;;5.15;42.57;100145.59;4995131;28;20036;-73
2024/03/01 02:42:45;;;;;;;14.57;8.65;;;;;;;5.05;42.87;100142.41;4996774;28;20045;-72
2024/03/01 02:45:11;;;;;;;13.65;6.65;;;;;;;5.13;42.72;100139.59;4985091;28;20982;-72
2024/03/01 02:47:37;;;;;;;14.90;6.82;;;;;;;5.10;42.93;100142.31;4994702;28;20049;-72
2024/03/01 02:50:03;;;;;;;19.13;7.57;;;;;;;4.98;43.13;100138.28;4989305;28;20041;-72
2024/03/01 02:52:28;;;;;;;12.73;7.20;;;;;;;5.18;43.21;100134.28;4992906;28;20037;-73
2024/03/01 02:54:54;;;;;;;13.70;6.10;;;;;;;5.11;42.98;100133.63;4987173;28;20061;-73
2024/03/01 02:57:19;;;;;;;15.70;6.90;;;;;;;5.20;43.01;100132.50;4991011;28;20033;-73
2024/03/01 02:59:45;;;;;;;17.10;6.07;;;;;;;5.19;42.86;100134.25;4993745;28;20407;-73
2024/03/01 03:02:10;;;;;;;14.45;5.88;;;;;;;5.35;42.77;100142.41;4976612;28;20100;-73
2024/03/01 03:04:36;;;;;;;12.00;6.82;;;;;;;5.14;43.07;100127.50;4960945;28;20129;-72
2024/03/01 03:07:01;;;;;;;16.88;6.95;;;;;;;5.33;42.66;100130.41;4978437;28;20045;-73
2024/03/01 03:09:28;;;;;;;10.35;5.38;;;;;;;5.40;43.02;100143.13;4985507;28;20038;-73
2024/03/01 03:11:55;;;;;;;18.33;6.82;;;;;;;5.21;43.07;100129.88;4989353;28;20037;-73
2024/03/01 03:14:20;;;;;;;10.77;6.20;;;;;;;5.31;42.89;100125.25;4980250;28;20033;-73
2024/03/01 03:16:45;;;;;;;12.45;5.80;;;;;;;5.33;42.99;100123.47;4962465;28;20072;-73
2024/03/01 03:19:11;;;;;;;12.98;6.28;;;;;;;5.34;42.96;100124.31;4950043;28;20061;-75
2024/03/01 03:21:36;;;;;;;11.98;5.72;;;;;;;5.42;42.88;100127.53;4965138;28;20053;-76
2024/03/01 03:24:02;;;;;;;11.57;5.82;;;;;;;5.35;43.35;100131.22;4941058;28;20100;-75
2024/03/01 03:26:28;;;;;;;13.18;6.32;;;;;;;5.31;43.15;100124.41;4953083;28;20107;-75
2024/03/01 03:28:54;;;;;;;13.65;5.60;;;;;;;5.32;42.97;100126.09;4960682;28;20354;-72
2024/03/01 03:31:21;;;;;;;12.02;5.53;;;;;;;5.23;43.39;100132.41;4947330;28;20162;-71
2024/03/01 03:33:47;;;;;;;12.85;6.07;;;;;;;5.24;43.31;100124.59;4946209;28;20398;-69
2024/03/01 03:36:12;;;;;;;13.07;6.22;;;;;;;5.08;43.68;100123.34;4954863;28;20380;-69
2024/03/01 03:38:38;;;;;;;13.07;7.15;;;;;;;5.11;43.55;100120.66;4991900;28;20116;-69
2024/03/01 03:41:04;;;;;;;11.43;5.00;;;;;;;5.14;43.47;100117.97;4985795;28;20125;-70
2024/03/01 03:43:29;;;;;;;16.98;6.80;;;;;;;5.11;43.79;100117.25;4961792;28;20048;-71
2024/03/01 03:45:54;;;;;;;12.60;5.85;;;;;;;4.99;43.88;100118.44;4995101;28;20034;-69
2024/03/01 03:48:20;;;;;;;10.95;6.07;;;;;;;5.16;43.46;100117.94;4983261;28;20139;-69
2024/03/01 03:50:46;;;;;;;12.65;6.68;;;;;;;5.12;43.85;100118.91;4996229;28;20069;-69
2024/03/01 03:53:11;;;;;;;12.38;6.07;;;;;;;5.07;43.68;100110.44;4952562;28;20030;-69
2024/03/01 03:55:37;;;;;;;11.73;5.68;;;;;;;5.09;43.74;100114.69;4978915;28;20040;-69
2024/03/01 03:58:02;;;;;;;10.88;6.00;;;;;;;5.19;43.93;100121.31;4990473;28;20030;-69
2024/03/01 04:00:28;;;;;;;13.57;6.15;;;;;;;5.16;44.04;100120.53;4971178;28;20029;-69
2024/03/01 04:02:53;;;;;;;10.82;6.40;;;;;;;5.07;44.17;100125.97;4993592;28;20073;-69
2024/03/01 04:05:18;;;;;;;15.80;6.72;;;;;;;4.97;44.33;100115.06;4981216;28;20106;-69
2024/03/01 04:07:44;;;;;;;13.30;5.55;;;;;;;5.20;43.93;100125.56;4994976;28;20117;-69
2024/03/01 04:10:10;;;;;;;16.75;6.78;;;;;;;5.11;44.38;100123.25;4966029;28;20548;-69
2024/03/01 04:12:36;;;;;;;12.13;5.95;;;;;;;5.11;44.24;100133.63;4994718;28;20059;-69
2024/03/01 04:15:06;;;;;;;11.82;5.53;;;;;;;5.23;44.35;100124.63;4976510;28;20463;-69
2024/03/01 04:17:32;;;;;;;17.02;7.45;;;;;;;5.24;44.32;100123.75;4991453;28;20084;-69
2024/03/01 04:19:57;;;;;;;12.85;6.63;;;;;;;5.21;44.13;100124.69;4996983;28;20040;-71
2024/03/01 04:22:23;;;;;;;14.55;7.10;;;;;;;5.03;44.45;100114.84;4985786;28;21084;-68
2024/03/01 04:24:49;;;;;;;11.88;6.43;;;;;;;5.19;44.93;100116.13;5007593;28;20069;-69
2024/03/01 04:27:14;;;;;;;13.85;6.65;;;;;;;4.90;45.04;100111.78;4990470;28;20045;-69
2024/03/01 04:29:40;;;;;;;15.75;7.60;;;;;;;5.14;44.80;100112.78;4998899;28;20522;-68
2024/03/01 04:32:07;;;;;;;14.02;6.57;;;;;;;5.24;44.46;100116.81;4994690;28;20045;-69
2024/03/01 04:34:33;;;;;;;10.18;5.20;;;;;;;5.31;44.38;100116.66;4995530;28;20038;-76
2024/03/01 04:36:59;;;;;;;12.77;6.13;;;;;;;5.23;44.35;100115.13;4983591;28;20052;-77
2024/03/01 04:39:25;;;;;;;14.75;6.53;;;;;;;5.07;44.57;100115.63;4976532;28;20044;-77
2024/03/01 04:41:54;;;;;;;12.82;6.35;;;;;;;4.90;44.91;100110.91;4999029;28;20056;-72
2024/03/01 04:44:20;;;;;;;12.07;6.72;;;;;;;5.00;45.03;100120.13;4987389;28;20038;-71
2024/03/01 04:46:46;;;;;;;16.70;6.85;;;;;;;5.09;44.71;100125.03;5000631;28;20052;-71
2024/03/01 04:49:11;;;;;;;11.75;6.13;;;;;;;5.05;44.96;100129.44;4988966;28;20068;-70
2024/03/01 04:51:37;;;;;;;13.93;6.97;;;;;;;5.16;44.78;100115.34;4997688;28;20037;-70
2024/03/01 04:54:05;;;;;;;12.68;7.30;;;;;;;5.04;44.78;100119.16;4994413;28;20030;-70
2024/03/01 04:56:30;;;;;;;14.35;6.80;;;;;;;5.07;44.92;100121.66;4975212;28;20218;-74
2024/03/01 04:58:56;;;;;;;11.43;6.72;;;;;;;5.12;44.82;100119.75;4998496;28;20071;-73
2024/03/01 05:01:22;;;;;;;13.07;6.60;;;;;;;5.11;45.02;100118.06;4970812;28;20128;-76
2024/03/01 05:03:48;;;;;;;10.98;6.82;;;;;;;5.09;44.87;100119.03;4997311;28;20061;-75
2024/03/01 05:06:13;;;;;;;11.70;7.43;;;;;;;5.07;44.86;100108.69;4991580;28;20037;-76
2024/03/01 05:08:39;;;;;;;16.13;6.65;;;;;;;4.99;45.14;100119.28;4995790;28;20107;-76
2024/03/01 05:11:04;;;;;;;11.50;6.60;;;;;;;5.05;44.93;100118.25;4996763;28;20045;-76
2024/03/01 05:13:30;;;;;;;13.02;7.55;;;;;;;4.89;45.58;100119.59;4986229;28;20034;-71
2024/03/01 05:15:56;;;;;;;11.43;6.85;;;;;;;4.90;45.62;100113.50;4998012;28;20041;-71
2024/03/01 05:18:21;;;;;;;14.02;7.13;;;;;;;4.90;45.82;100108.31;4972996;28;20041;-71
2024/03/01 05:20:47;;;;;;;16.42;7.80;;;;;;;4.88;45.50;100099.75;5000573;28;20045;-69
2024/03/01 05:23:12;;;;;;;18.10;7.85;;;;;;;4.82;46.04;100099.00;4992647;28;20488;-69
2024/03/01 05:25:38;;;;;;;16.40;7.85;;;;;;;4.82;46.25;100100.75;4971252;28;20562;-75
2024/03/01 05:28:04;;;;;;;17.25;7.25;;;;;;;4.83;46.08;100095.53;5000073;28;20030;-73
2024/03/01 05:30:35;;;;;;;15.07;7.55;;;;;;;4.87;46.14;100098.03;4965715;28;21177;-70
2024/03/01 05:33:01;;;;;;;15.57;7.50;;;;;;;4.94;46.30;100097.84;4982201;28;20148;-71
2024/03/01 05:35:27;;;;;;;14.50;7.55;;;;;;;4.82;46.61;100096.41;4944982;28;20064;-70
2024/03/01 05:37:56;;;;;;;17.45;8.00;;;;;;;4.93;46.57;100100.50;4994928;28;20465;-70
2024/03/01 05:40:22;;;;;;;16.90;8.90;;;;;;;5.11;46.02;100096.50;4971495;28;20120;-71
2024/03/01 05:42:47;;;;;;;12.27;7.15;;;;;;;5.10;46.15;100100.84;4980682;28;20037;-71
2024/03/01 05:45:13;;;;;;;13.55;6.88;;;;;;;5.20;45.93;100104.84;4995141;28;20107;-70
2024/03/01 05:47:42;;;;;;;15.30;8.57;;;;;;;5.17;46.25;100102.38;4986824;28;21758;-69
2024/03/01 05:50:09;;;;;;;15.13;8.52;;;;;;;5.25;46.52;100105.56;4996831;28;20048;-68
2024/03/01 05:52:36;;;;;;;14.68;8.05;;;;;;;5.12;46.69;100109.41;4983872;28;20135;-71
2024/03/01 05:55:08;;;;;;;16.25;8.43;;;;;;;5.12;47.00;100113.75;4997765;28;20061;-72
2024/03/01 05:57:34;;;;;;;15.95;7.95;;;;;;;5.25;46.49;100102.13;4964892;28;21721;-68
2024/03/01 06:00:02;;;;;;;18.00;8.68;;;;;;;5.10;47.00;100116.41;4995224;28;20032;-67
2024/03/01 06:02:35;;;;;;;21.30;8.40;;;;;;;5.31;46.69;100108.88;4976847;28;20077;-68
2024/03/01 06:05:02;;;;;;;19.75;9.65;;;;;;;5.34;46.58;100116.53;4961642;28;20103;-68
2024/03/01 06:07:28;;;;;;;18.05;8.80;;;;;;;5.42;46.58;100119.75;4973933;28;20487;-68
2024/03/01 06:09:53;;;;;;;20.80;9.77;;;;;;;5.27;46.96;100112.44;4996304;28;20045;-67
2024/03/01 06:12:20;;;;;;;20.92;9.20;;;;;;;5.37;46.90;100114.72;4975521;28;20040;-68
2024/03/01 06:14:45;;;;;;;16.80;9.00;;;;;;;5.38;46.43;100108.63;4976475;28;20033;-68
2024/03/01 06:17:11;;;;;;;20.63;9.18;;;;;;;5.49;46.82;100113.47;4957541;28;20138;-74
2024/03/01 06:19:39;;;;;;;24.20;10.07;;;;;;;5.34;47.27;100113.94;4969258;28;20041;-73
2024/03/01 06:22:04;;;;;;;15.32;9.25;;;;;;;5.50;46.63;100114.31;4994920;28;20044;-74
2024/03/01 06:24:30;;;;;;;18.65;9.65;;;;;;;5.23;47.72;100119.44;4968931;28;20041;-73
2024/03/01 06:26:56;;;;;;;23.65;9.48;;;;;;;5.24;47.63;100114.22;4997853;28;20482;-74
2024/03/01 06:29:22;;;;;;;23.27;9.50;;;;;;;5.49;46.81;100110.91;4988945;28;20044;-75
2024/03/01 06:31:47;;;;;;;21.55;10.20;;;;;;;5.52;46.80;100125.50;4996573;28;20037;-74
2024/03/01 06:34:13;;;;;;;19.13;9.82;;;;;;;5.48;46.91;100119.56;4989023;28;20058;-74
2024/03/01 06:36:38;;;;;;;19.92;9.88;;;;;;;5.51;47.05;100118.63;4958511;28;20806;-72
2024/03/01 06:39:04;;;;;;;20.38;11.15;;;;;;;5.44;47.34;100116.22;4994364;28;20026;-72
2024/03/01 06:41:30;;;;;;;19.83;9.80;;;;;;;5.53;47.16;100120.28;4971292;28;21012;-73
2024/03/01 06:43:56;;;;;;;24.13;10.38;;;;;;;5.54;47.02;100129.72;4957517;28;20722;-73
2024/03/01 06:46:23;;;;;;;22.98;11.18;;;;;;;5.35;47.67;100126.03;4990978;28;20045;-74
2024/03/01 06:48:49;;;;;;;23.08;11.60;;;;;;;5.33;47.56;100113.09;4995164;28;20767;-77
2024/03/01 06:51:15;;;;;;;21.70;10.57;;;;;;;5.49;47.20;100120.41;4991582;28;20037;-69
2024/03/01 06:53:42;;;;;;;20.75;10.05;;;;;;;5.12;47.81;100118.91;4955551;28;20121;-75
2024/03/01 06:56:13;;;;;;;21.83;10.60;;;;;;;5.40;47.64;100126.72;4957608;28;20435;-77
2024/03/01 06:58:42;;;;;;;23.55;11.10;;;;;;;5.59;47.62;100125.28;4963087;28;20943;-72
2024/03/01 07:01:08;;;;;;;28.08;10.98;;;;;;;5.53;47.54;100120.28;4941764;28;20069;-74
2024/03/01 07:03:35;;;;;;;26.15;10.35;;;;;;;5.32;47.82;100120.91;4935258;28;20235;-74
2024/03/01 07:06:02;;;;;;;20.15;11.10;;;;;;;5.41;47.65;100126.69;4945989;28;20037;-71
2024/03/01 07:08:28;;;;;;;26.55;10.70;;;;;;;5.58;47.58;100123.56;4941291;28;20036;-73
2024/03/01 07:10:54;;;;;;;23.25;11.77;;;;;;;5.53;47.53;100122.03;4962399;28;20112;-73
2024/03/01 07:13:21;;;;;;;26.42;10.95;;;;;;;5.70;47.31;100122.31;4955496;28;20516;-74
2024/03/01 07:15:47;;;;;;;23.20;11.38;;;;;;;5.84;47.18;100125.34;4987600;28;20049;-76
2024/03/01 07:18:13;;;;;;;24.60;11.38;;;;;;;5.78;47.08;100124.69;4979832;28;20048;-74
2024/03/01 07:20:39;;;;;;;23.83;11.50;;;;;;;5.73;47.39;100122.25;4980835;28;20037;-72
2024/03/01 07:23:05;;;;;;;31.00;12.02;;;;;;;5.83;47.15;100139.19;4992189;28;20398;-72
2024/03/01 07:25:32;;;;;;;25.80;12.43;;;;;;;5.74;47.40;100133.47;4967309;28;21333;-73
2024/03/01 07:27:58;;;;;;;23.05;10.55;;;;;;;5.62;47.68;100138.13;4960256;28;20033;-73
2024/03/01 07:30:23;;;;;;;25.70;12.27;;;;;;;5.59;47.61;100139.97;4968997;28;20056;-72
2024/03/01 07:32:53;;;;;;;26.50;11.48;;;;;;;5.82;47.47;100141.84;4985044;28;20210;-72
2024/03/01 07:35:19;;;;;;;22.83;10.80;;;;;;;5.92;47.19;100147.59;4982980;28;20041;-76
2024/03/01 07:37:44;;;;;;;24.02;11.55;;;;;;;5.73;47.37;100145.59;4980725;28;20049;-71
2024/03/01 07:40:10;;;;;;;19.15;10.32;;;;;;;6.03;47.32;100148.09;4991181;28;20045;-68
2024/03/01 07:42:36;;;;;;;23.98;11.02;;;;;;;5.93;47.63;100142.34;4978724;28;20041;-68
2024/03/01 07:45:03;;;;;;;23.10;11.45;;;;;;;6.08;47.14;100141.84;4977642;28;20056;-68
2024/03/01 07:47:29;;;;;;;21.52;10.98;;;;;;;6.03;47.19;100143.72;4974417;28;20171;-68
2024/03/01 07:49:56;;;;;;;23.75;11.60;;;;;;;5.57;47.96;100158.19;4986346;28;20649;-68
2024/03/01 07:52:21;;;;;;;22.38;11.32;;;;;;;5.91;47.58;100145.91;4992344;28;20447;-68
2024/03/01 07:54:47;;;;;;;24.63;11.23;;;;;;;6.01;47.45;100148.13;4989827;28;20025;-68
2024/03/01 07:57:14;;;;;;;22.52;10.50;;;;;;;5.65;48.66;100145.81;4996346;28;20128;-69
2024/03/01 07:59:40;;;;;;;24.50;11.70;;;;;;;5.96;47.54;100146.59;4991959;28;20499;-71
2024/03/01 08:02:09;;;;;;;31.17;13.80;;;;;;;6.19;47.44;100157.03;4997105;28;20045;-68
2024/03/01 08:04:34;;;;;;;23.02;11.25;;;;;;;5.67;49.23;100158.72;5006864;28;21184;-70
2024/03/01 08:07:01;;;;;;;21.45;10.93;;;;;;;6.16;48.33;100153.72;4972677;28;20041;-69
2024/03/01 08:09:36;;;;;;;22.65;11.07;;;;;;;6.48;47.65;100148.34;4979917;28;20029;-72
2024/03/01 08:12:05;;;;;;;28.20;12.20;;;;;;;6.59;46.95;100150.53;4976578;28;20037;-69
2024/03/01 08:14:33;;;;;;;21.15;10.88;;;;;;;6.32;47.47;100147.16;4983172;28;20029;-70
2024/03/01 08:16:59;;;;;;;21.67;10.40;;;;;;;6.33;47.64;100147.97;4957616;28;21154;-71
2024/03/01 08:19:35;;;;;;;26.52;11.68;;;;;;;6.16;48.29;100151.13;4957915;28;20037;-69
2024/03/01 08:22:12;;;;;;;24.33;11.27;;;;;;;6.40;47.87;100152.09;4936428;28;20097;-64
2024/03/01 08:24:43;;;;;;;19.88;10.63;;;;;;;6.64;47.66;100159.03;4971848;28;20033;-69
2024/03/01 08:27:09;;;;;;;23.10;10.80;;;;;;;6.77;47.11;100164.63;4967684;28;20033;-69
2024/03/01 08:29:40;;;;;;;22.98;10.25;;;;;;;6.73;46.96;100163.06;4967909;28;20025;-69
2024/03/01 08:32:34;;;;;;;23.10;11.45;;;;;;;6.75;47.30;100169.03;4997558;28;20033;-70
2024/03/01 08:35:00;;;;;;;21.83;10.52;;;;;;;5.95;49.02;100170.81;4960420;28;20052;-69
2024/03/01 08:37:31;;;;;;;25.70;10.90;;;;;;;5.69;50.02;100182.03;4999304;28;20053;-68
2024/03/01 08:39:57;;;;;;;24.58;11.00;;;;;;;6.65;48.15;100175.47;4951549;28;20044;-70
2024/03/01 08:42:24;;;;;;;25.58;12.30;;;;;;;6.93;47.39;100190.06;4953936;28;20495;-67
2024/03/01 08:44:53;;;;;;;25.13;10.82;;;;;;;6.41;48.39;100177.97;4971306;28;20034;-70
2024/03/01 08:47:39;;;;;;;25.55;11.32;;;;;;;6.29;49.20;100188.78;4993763;28;20076;-69
2024/03/01 08:50:26;;;;;;;21.15;10.10;;;;;;;6.53;48.38;100188.84;4941901;28;20042;-70
2024/03/01 08:52:55;;;;;;;22.15;10.77;;;;;;;6.34;48.89;100193.81;4962459;28;20053;-69
2024/03/01 08:55:20;;;;;;;20.33;10.77;;;;;;;6.18;49.24;100198.63;4959304;28;20041;-70
2024/03/01 08:57:48;;;;;;;19.65;9.70;;;;;;;6.43;48.84;100201.28;4987790;28;20037;-67
2024/03/01 09:00:26;;;;;;;19.67;9.60;;;;;;;6.25;49.23;100207.91;4987691;28;20037;-69
2024/03/01 09:02:52;;;;;;;17.15;9.73;;;;;;;5.50;51.28;100208.47;4950429;28;20049;-70
2024/03/01 09:05:18;;;;;;;22.95;10.73;;;;;;;6.00;50.33;100213.88;4997354;28;20033;-69
2024/03/01 09:07:44;;;;;;;20.20;9.07;;;;;;;6.17;50.42;100209.91;4984167;28;20049;-70
2024/03/01 09:10:32;;;;;;;16.90;9.18;;;;;;;6.32;50.14;100211.19;4969991;28;20038;-69
2024/03/01 09:12:58;;;;;;;22.00;11.98;;;;;;;6.29;50.26;100219.94;4982822;28;20037;-69
2024/03/01 09:15:25;;;;;;;23.20;9.52;;;;;;;6.11;50.85;100210.13;4998576;28;20036;-68
2024/03/01 09:17:52;;;;;;;20.63;10.15;;;;;;;6.09;51.10;100218.78;4982618;28;20040;-69
2024/03/01 09:20:26;;;;;;;17.92;9.50;;;;;;;6.41;51.01;100226.47;4994687;28;20052;-70
2024/03/01 09:22:52;;;;;;;18.35;9.32;;;;;;;5.96;52.57;100227.84;4975441;28;20040;-70
2024/03/01 09:25:49;;;;;;;20.08;9.80;;;;;;;6.20;51.77;100231.41;4995517;28;20881;-70
2024/03/01 09:28:21;;;;;;;22.38;9.60;;;;;;;5.64;53.54;100236.63;4992142;28;20052;-69
2024/03/01 09:30:51;;;;;;;19.67;10.27;;;;;;;5.72;53.75;100237.22;4980163;28;20045;-69
2024/03/01 09:33:19;;;;;;;21.15;9.15;;;;;;;5.76;53.61;100233.63;4967582;28;20199;-70
2024/03/01 09:35:45;;;;;;;21.38;9.20;;;;;;;6.09;53.04;100239.53;4975017;28;20037;-68
2024/03/01 09:38:13;;;;;;;19.73;9.38;;;;;;;5.93;53.77;100248.69;4946344;28;20048;-68
2024/03/01 09:41:16;;;;;;;20.92;10.02;;;;;;;5.34;55.24;100259.06;4974173;28;20193;-66
2024/03/01 09:44:17;;;;;;;21.75;10.10;;;;;;;5.52;55.32;100255.09;4937351;28;20033;-68
2024/03/01 09:47:05;;;;;;;18.20;9.15;;;;;;;5.58;55.68;100257.53;4898158;28;20045;-69
2024/03/01 09:49:49;;;;;;;23.75;10.20;;;;;;;5.11;57.71;100262.31;4969762;28;20057;-73
2024/03/01 09:52:19;;;;;;;18.13;9.40;;;;;;;5.48;56.71;100267.31;4943104;28;20121;-69
2024/03/01 09:54:50;;;;;;;15.75;9.45;;;;;;;5.18;57.65;100272.44;4959313;28;20705;-69
2024/03/01 09:58:09;;;;;;;21.50;9.52;;;;;;;5.42;56.80;100272.66;4961506;28;20339;-67
2024/03/01 10:00:45;;;;;;;17.75;9.38;;;;;;;5.22;57.86;100268.03;4948788;28;20272;-67
2024/03/01 10:03:17;;;;;;;14.15;8.45;;;;;;;5.17;58.37;100291.47;4976328;28;20021;-68
2024/03/01 10:05:49;;;;;;;9.27;4.60;;;;;;;5.19;57.69;100292.28;4956936;28;20034;-69
2024/03/01 10:08:42;;;;;;;5.05;2.03;;;;;;;4.15;59.81;100300.00;4964083;28;20036;-68
2024/03/01 10:11:31;;;;;;;3.88;1.45;;;;;;;4.37;59.10;100297.78;4963807;28;20745;-68
2024/03/01 10:14:21;;;;;;;4.40;1.48;;;;;;;4.46;59.58;100314.81;4957297;28;20754;-69
2024/03/01 10:17:04;;;;;;;5.72;1.40;;;;;;;4.64;58.59;100304.88;4963320;28;20701;-68
2024/03/01 10:20:07;;;;;;;3.30;1.10;;;;;;;4.80;57.81;100318.28;4991963;28;20029;-68
2024/03/01 10:22:42;;;;;;;1.70;0.60;;;;;;;4.47;59.43;100334.63;4976246;28;20076;-68
2024/03/01 10:25:21;;;;;;;2.53;0.43;;;;;;;4.22;59.61;100333.44;4967150;28;21272;-68
2024/03/01 10:27:55;;;;;;;1.80;0.70;;;;;;;4.16;60.12;100330.13;4990258;28;20041;-68
2024/03/01 10:30:25;;;;;;;3.95;0.32;;;;;;;4.12;60.74;100336.25;4991057;28;20033;-68
2024/03/01 10:33:18;;;;;;;2.30;0.30;;;;;;;4.20;60.26;100340.38;4943894;28;20100;-70
2024/03/01 10:35:46;;;;;;;0.70;0.30;;;;;;;4.39;59.86;100334.81;4962334;28;20934;-69
2024/03/01 10:38:42;;;;;;;1.63;0.40;;;;;;;4.53;59.57;100343.09;5035177;27;20414;-68
2024/03/01 10:41:17;;;;;;;1.30;0.30;;;;;;;4.38;59.54;100346.03;5014769;28;20045;-68
2024/03/01 10:44:13;;;;;;;2.78;0.30;;;;;;;4.55;59.52;100335.31;4979658;28;20040;-68
2024/03/01 10:46:51;;;;;;;3.78;0.30;;;;;;;5.12;57.34;100342.53;4955652;28;20100;-69
2024/03/01 10:49:58;;;;;;;0.57;0.20;;;;;;;5.05;57.67;100330.66;4968808;28;20355;-68
2024/03/01 10:52:32;;;;;;;1.13;0.30;;;;;;;5.34;56.96;100335.06;4975244;28;20045;-68
2024/03/01 10:55:01;;;;;;;2.22;0.30;;;;;;;6.13;56.17;100325.06;4993624;28;20037;-68
2024/03/01 10:57:27;;;;;;;0.93;0.20;;;;;;;5.84;54.92;100322.44;4998425;28;20056;-68
2024/03/01 10:59:58;;;;;;;2.17;0.65;;;;;;;6.76;54.58;100326.56;5000934;28;20037;-69
2024/03/01 11:02:29;;;;;;;0.85;0.63;;;;;;;7.15;51.74;100323.53;5018690;28;20076;-68
2024/03/01 11:05:23;;;;;;;1.92;0.20;;;;;;;7.68;53.48;100326.00;4993212;28;20048;-68
2024/03/01 11:08:00;;;;;;;3.05;0.60;;;;;;;7.84;50.91;100326.28;4979097;28;20037;-69
2024/03/01 11:10:31;;;;;;;1.08;0.20;;;;;;;7.54;49.12;100333.44;4988158;28;20044;-69
2024/03/01 11:13:01;;;;;;;1.90;0.20;;;;;;;7.31;50.00;100337.69;4981256;28;20045;-69
2024/03/01 11:15:29;;;;;;;0.40;0.20;;;;;;;7.01;49.92;100343.94;4978084;28;20041;-70
2024/03/01 11:17:59;;;;;;;0.60;0.20;;;;;;;7.45;49.19;100333.75;4994406;28;20044;-70
2024/03/01 11:20:46;;;;;;;0.73;0.30;;;;;;;7.74;48.75;100330.97;5000850;28;20029;-70
2024/03/01 11:23:28;;;;;;;1.65;0.30;;;;;;;7.81;48.39;100328.16;4996833;28;20303;-70
2024/03/01 11:26:10;;;;;;;1.23;0.60;;;;;;;6.63;49.68;100339.09;4997732;28;20065;-70
2024/03/01 11:28:38;;;;;;;1.40;0.85;;;;;;;7.12;49.56;100331.44;4999728;28;20032;-70
2024/03/01 11:31:11;;;;;;;1.45;0.50;;;;;;;7.53;47.60;100331.72;4989259;28;20034;-70
2024/03/01 11:33:41;;;;;;;7.03;2.05;;;;;;;7.15;48.68;100333.91;4988683;28;20205;-70